createdAt,value
2017-07-14T00:00:25.987Z,14.43
2017-07-14T00:01:26.311Z,14.39
2017-07-14T00:02:26.348Z,14.33
2017-07-14T00:03:26.049Z,14.18
2017-07-14T00:04:40.990Z,14.18
2017-07-14T00:05:26.420Z,14.18
2017-07-14T00:06:26.461Z,14.24
2017-07-14T00:07:41.059Z,14.22
2017-07-14T00:08:26.179Z,14.17
2017-07-14T00:09:26.511Z,14.22
2017-07-14T00:10:26.222Z,14.14
2017-07-14T00:11:41.147Z,14.14
2017-07-14T00:12:26.588Z,14.04
2017-07-14T00:13:26.610Z,14.09
2017-07-14T00:14:26.634Z,13.96
2017-07-14T00:15:26.325Z,13.92
2017-07-14T00:16:26.368Z,13.89
2017-07-14T00:17:26.695Z,13.99
2017-07-14T00:18:26.406Z,13.92
2017-07-14T00:19:26.758Z,13.95
2017-07-14T00:20:26.769Z,13.92
2017-07-14T00:21:26.460Z,13.89
2017-07-14T00:22:26.486Z,13.85
2017-07-14T00:23:41.110Z,13.95
2017-07-14T00:24:26.549Z,13.92
2017-07-14T00:25:26.876Z,13.89
2017-07-14T00:26:26.909Z,13.91
2017-07-14T00:27:26.609Z,13.92
2017-07-14T00:28:41.542Z,13.78
2017-07-14T00:29:26.963Z,13.85
2017-07-14T00:30:26.681Z,13.75
2017-07-14T00:31:27.017Z,13.7
2017-07-14T00:32:27.040Z,13.71
2017-07-14T00:33:27.088Z,13.7
2017-07-14T00:34:27.129Z,13.78
2017-07-14T00:36:27.133Z,13.91
2017-07-14T00:37:41.757Z,13.77
2017-07-14T00:38:27.184Z,13.82
2017-07-14T00:39:27.211Z,13.69
2017-07-14T00:40:27.230Z,13.73
2017-07-14T00:41:26.928Z,13.59
2017-07-14T00:42:27.293Z,13.6
2017-07-14T00:43:41.896Z,13.52
2017-07-14T00:44:26.687Z,13.6
2017-07-14T00:45:27.343Z,13.51
2017-07-14T00:46:27.364Z,13.51
2017-07-14T00:47:27.377Z,13.51
2017-07-14T00:48:27.430Z,13.51
2017-07-14T00:49:27.123Z,13.41
2017-07-14T00:50:27.189Z,13.45
2017-07-14T00:51:27.518Z,13.46
2017-07-14T00:52:27.519Z,13.39
2017-07-14T00:53:42.126Z,13.41
2017-07-14T00:55:27.582Z,13.33
2017-07-14T00:56:27.272Z,13.36
2017-07-14T00:57:27.629Z,13.3
2017-07-14T00:58:27.641Z,13.3
2017-07-14T01:00:27.358Z,13.25
2017-07-14T01:01:27.694Z,13.19
2017-07-14T01:02:27.410Z,13.22
2017-07-14T01:03:27.760Z,13.19
2017-07-14T01:04:27.786Z,13.19
2017-07-14T01:05:27.794Z,13.22
2017-07-14T01:06:27.813Z,13.25
2017-07-14T01:07:27.846Z,13.12
2017-07-14T01:08:27.884Z,13.23
2017-07-14T01:09:27.901Z,13.19
2017-07-14T01:10:27.281Z,13.14
2017-07-14T01:11:27.621Z,13.08
2017-07-14T01:12:27.990Z,13.19
2017-07-14T01:13:27.994Z,13.05
2017-07-14T01:14:28.005Z,13.08
2017-07-14T01:15:42.310Z,13.01
2017-07-14T01:16:28.047Z,13
2017-07-14T01:17:28.066Z,12.95
2017-07-14T01:18:28.100Z,12.95
2017-07-14T01:19:28.121Z,12.87
2017-07-14T01:20:28.163Z,12.93
2017-07-14T01:21:28.166Z,12.86
2017-07-14T01:22:42.471Z,12.82
2017-07-14T01:23:27.881Z,12.79
2017-07-14T01:24:28.235Z,12.71
2017-07-14T01:25:28.250Z,12.7
2017-07-14T01:26:28.284Z,12.75
2017-07-14T01:27:27.988Z,12.72
2017-07-14T01:28:28.006Z,12.75
2017-07-14T01:29:28.342Z,12.85
2017-07-14T01:30:28.357Z,12.85
2017-07-14T01:31:42.993Z,12.96
2017-07-14T01:32:28.415Z,12.97
2017-07-14T01:33:28.446Z,12.96
2017-07-14T01:34:28.445Z,12.9
2017-07-14T01:35:28.174Z,12.9
2017-07-14T01:36:28.502Z,13.03
2017-07-14T01:37:28.216Z,12.87
2017-07-14T01:38:28.238Z,12.86
2017-07-14T01:39:28.572Z,12.9
2017-07-14T01:40:28.597Z,12.93
2017-07-14T01:41:28.635Z,12.92
2017-07-14T01:42:28.330Z,12.95
2017-07-14T01:43:28.670Z,12.86
2017-07-14T01:44:28.693Z,12.93
2017-07-14T01:45:28.402Z,12.87
2017-07-14T01:46:43.014Z,12.77
2017-07-14T01:47:43.349Z,12.82
2017-07-14T01:48:28.463Z,12.78
2017-07-14T01:49:28.470Z,12.71
2017-07-14T01:50:28.828Z,12.85
2017-07-14T01:51:28.839Z,12.77
2017-07-14T01:52:28.909Z,12.77
2017-07-14T01:53:28.893Z,12.75
2017-07-14T01:54:28.922Z,12.77
2017-07-14T01:55:43.536Z,12.75
2017-07-14T01:56:43.559Z,12.65
2017-07-14T01:57:28.664Z,12.68
2017-07-14T01:58:28.997Z,12.83
2017-07-14T01:59:43.621Z,12.82
2017-07-14T02:00:28.740Z,12.82
2017-07-14T02:01:28.760Z,12.74
2017-07-14T02:02:29.088Z,12.77
2017-07-14T02:03:29.120Z,12.75
2017-07-14T02:04:29.143Z,12.75
2017-07-14T02:05:28.838Z,12.77
2017-07-14T02:06:43.792Z,12.85
2017-07-14T02:07:29.200Z,12.79
2017-07-14T02:08:29.223Z,12.77
2017-07-14T02:09:29.260Z,12.79
2017-07-14T02:10:29.266Z,12.68
2017-07-14T02:11:29.302Z,12.75
2017-07-14T02:12:29.322Z,12.68
2017-07-14T02:13:29.035Z,12.7
2017-07-14T02:14:29.357Z,12.64
2017-07-14T02:15:29.083Z,12.64
2017-07-14T02:16:29.398Z,12.68
2017-07-14T02:17:29.442Z,12.62
2017-07-14T02:18:44.061Z,12.68
2017-07-14T02:19:29.481Z,12.65
2017-07-14T02:20:29.494Z,12.7
2017-07-14T02:21:29.511Z,12.82
2017-07-14T02:22:29.232Z,12.65
2017-07-14T02:23:28.931Z,12.71
2017-07-14T02:24:29.276Z,12.71
2017-07-14T02:25:29.611Z,12.65
2017-07-14T02:26:29.646Z,12.64
2017-07-14T02:27:29.656Z,12.67
2017-07-14T02:28:44.276Z,12.67
2017-07-14T02:29:44.304Z,12.67
2017-07-14T02:30:29.733Z,12.65
2017-07-14T02:31:29.433Z,12.56
2017-07-14T02:32:29.145Z,12.6
2017-07-14T02:33:29.783Z,12.52
2017-07-14T02:34:44.417Z,12.42
2017-07-14T02:35:29.844Z,12.46
2017-07-14T02:36:29.862Z,12.45
2017-07-14T02:37:29.562Z,12.5
2017-07-14T02:38:29.582Z,12.42
2017-07-14T02:39:44.534Z,12.46
2017-07-14T02:40:29.936Z,12.42
2017-07-14T02:41:29.664Z,12.41
2017-07-14T02:42:29.991Z,12.45
2017-07-14T02:43:30.026Z,12.42
2017-07-14T02:44:44.637Z,12.42
2017-07-14T02:45:30.052Z,12.34
2017-07-14T02:46:30.096Z,12.37
2017-07-14T02:47:30.117Z,12.39
2017-07-14T02:49:30.150Z,12.35
2017-07-14T02:50:44.774Z,12.35
2017-07-14T02:51:30.211Z,12.42
2017-07-14T02:52:30.200Z,12.38
2017-07-14T02:53:30.241Z,12.38
2017-07-14T02:54:30.249Z,12.31
2017-07-14T02:55:30.295Z,12.45
2017-07-14T02:56:30.304Z,12.5
2017-07-14T02:57:30.330Z,12.47
2017-07-14T02:58:30.025Z,12.52
2017-07-14T02:59:30.069Z,12.53
2017-07-14T03:00:30.399Z,12.64
2017-07-14T03:01:30.415Z,12.67
2017-07-14T03:02:45.034Z,12.75
2017-07-14T03:03:30.462Z,12.85
2017-07-14T03:04:30.469Z,12.9
2017-07-14T03:05:30.517Z,12.86
2017-07-14T03:07:30.560Z,12.97
2017-07-14T03:08:30.262Z,12.97
2017-07-14T03:09:30.268Z,12.92
2017-07-14T03:10:30.622Z,12.92
2017-07-14T03:11:30.639Z,12.86
2017-07-14T03:12:45.268Z,12.86
2017-07-14T03:13:30.703Z,12.86
2017-07-14T03:15:30.746Z,12.78
2017-07-14T03:16:30.438Z,12.7
2017-07-14T03:17:30.768Z,12.7
2017-07-14T03:18:30.166Z,12.68
2017-07-14T03:20:30.857Z,12.62
2017-07-14T03:21:45.464Z,12.75
2017-07-14T03:22:30.895Z,12.74
2017-07-14T03:23:30.277Z,12.75
2017-07-14T03:24:30.940Z,12.83
2017-07-14T03:25:30.955Z,12.85
2017-07-14T03:26:30.987Z,12.79
2017-07-14T03:27:31.001Z,12.78
2017-07-14T03:28:31.014Z,12.75
2017-07-14T03:29:31.057Z,12.75
2017-07-14T03:30:30.759Z,12.78
2017-07-14T03:31:31.085Z,12.77
2017-07-14T03:32:30.797Z,12.75
2017-07-14T03:33:45.728Z,12.79
2017-07-14T03:34:31.162Z,12.75
2017-07-14T03:35:31.180Z,12.78
2017-07-14T03:36:31.204Z,12.85
2017-07-14T03:37:30.908Z,12.75
2017-07-14T03:38:30.936Z,12.79
2017-07-14T03:40:31.287Z,12.83
2017-07-14T03:41:31.319Z,12.72
2017-07-14T03:42:31.332Z,12.71
2017-07-14T03:43:31.362Z,12.74
2017-07-14T03:44:31.382Z,12.71
2017-07-14T03:45:31.397Z,12.72
2017-07-14T03:46:31.098Z,12.87
2017-07-14T03:47:46.048Z,12.83
2017-07-14T03:48:31.467Z,12.86
2017-07-14T03:49:31.178Z,12.85
2017-07-14T03:50:31.207Z,12.86
2017-07-14T03:51:31.528Z,12.86
2017-07-14T03:53:46.178Z,12.93
2017-07-14T03:54:31.611Z,12.93
2017-07-14T03:55:31.613Z,12.95
2017-07-14T03:56:31.331Z,12.86
2017-07-14T03:57:31.660Z,12.87
2017-07-14T03:58:31.709Z,12.96
2017-07-14T03:59:31.387Z,13.05
2017-07-14T04:00:31.742Z,13.05
2017-07-14T04:01:31.751Z,13.01
2017-07-14T04:02:31.788Z,13.07
2017-07-14T04:03:31.803Z,13.01
2017-07-14T04:04:31.812Z,13.11
2017-07-14T04:05:31.853Z,13.05
2017-07-14T04:06:31.557Z,13.03
2017-07-14T04:07:31.901Z,13.12
2017-07-14T04:08:31.916Z,13.17
2017-07-14T04:09:46.545Z,13.12
2017-07-14T04:10:31.960Z,13.12
2017-07-14T04:11:31.655Z,13.14
2017-07-14T04:12:46.618Z,13.22
2017-07-14T04:13:32.029Z,13.17
2017-07-14T04:14:46.655Z,13.23
2017-07-14T04:15:32.073Z,13.17
2017-07-14T04:16:31.782Z,13.2
2017-07-14T04:17:32.111Z,13.2
2017-07-14T04:18:31.825Z,13.22
2017-07-14T04:19:46.765Z,13.33
2017-07-14T04:20:32.168Z,13.32
2017-07-14T04:21:32.208Z,13.42
2017-07-14T04:22:31.916Z,13.45
2017-07-14T04:23:31.613Z,13.51
2017-07-14T04:24:32.279Z,13.59
2017-07-14T04:25:46.899Z,13.57
2017-07-14T04:26:32.011Z,13.6
2017-07-14T04:27:32.359Z,13.6
2017-07-14T04:28:32.047Z,13.63
2017-07-14T04:29:32.398Z,13.64
2017-07-14T04:30:32.097Z,13.59
2017-07-14T04:31:32.445Z,13.62
2017-07-14T04:32:32.468Z,13.67
2017-07-14T04:33:32.489Z,13.81
2017-07-14T04:34:32.499Z,13.87
2017-07-14T04:35:32.524Z,13.96
2017-07-14T04:36:32.547Z,14.06
2017-07-14T04:37:32.571Z,14.37
2017-07-14T04:38:32.600Z,14.51
2017-07-14T04:39:32.619Z,14.62
2017-07-14T04:40:32.325Z,14.94
2017-07-14T04:41:47.249Z,15.19
2017-07-14T04:42:32.692Z,15.31
2017-07-14T04:43:32.700Z,15.43
2017-07-14T04:44:32.739Z,15.44
2017-07-14T04:45:32.759Z,15.5
2017-07-14T04:46:32.770Z,15.53
2017-07-14T04:47:32.841Z,15.75
2017-07-14T04:48:32.833Z,15.78
2017-07-14T04:49:32.832Z,15.87
2017-07-14T04:50:32.566Z,15.83
2017-07-14T04:51:32.563Z,16.05
2017-07-14T04:52:32.614Z,16.28
2017-07-14T04:53:32.939Z,16.39
2017-07-14T04:54:32.977Z,16.76
2017-07-14T04:55:32.667Z,17.18
2017-07-14T04:56:47.615Z,17.79
2017-07-14T04:57:33.032Z,18.07
2017-07-14T04:58:32.426Z,18.33
2017-07-14T04:59:33.082Z,18.3
2017-07-14T05:00:32.475Z,18.29
2017-07-14T05:01:33.136Z,18.23
2017-07-14T05:02:33.162Z,18.23
2017-07-14T05:03:33.199Z,18.27
2017-07-14T05:04:33.197Z,18.27
2017-07-14T05:05:33.224Z,18.17
2017-07-14T05:06:47.854Z,18.1
2017-07-14T05:07:33.273Z,18.2
2017-07-14T05:09:33.313Z,18.12
2017-07-14T05:10:33.354Z,18.26
2017-07-14T05:11:33.069Z,18.18
2017-07-14T05:12:33.412Z,18.3
2017-07-14T05:13:33.418Z,18.32
2017-07-14T05:14:33.137Z,18.3
2017-07-14T05:15:33.474Z,18.27
2017-07-14T05:16:33.492Z,18.29
2017-07-14T05:17:33.528Z,18.21
2017-07-14T05:18:33.552Z,18.21
2017-07-14T05:19:33.559Z,18.11
2017-07-14T05:20:33.605Z,18.05
2017-07-14T05:21:33.612Z,18.02
2017-07-14T05:22:47.928Z,18
2017-07-14T05:23:33.032Z,18.07
2017-07-14T05:24:33.382Z,18.05
2017-07-14T05:25:33.406Z,18.1
2017-07-14T05:26:33.741Z,18.1
2017-07-14T05:27:33.769Z,18.12
2017-07-14T05:28:48.390Z,18.25
2017-07-14T05:29:33.501Z,18.27
2017-07-14T05:31:33.861Z,18.39
2017-07-14T05:32:48.482Z,18.42
2017-07-14T05:33:33.925Z,18.3
2017-07-14T05:34:33.621Z,18.32
2017-07-14T05:35:33.969Z,18.25
2017-07-14T05:36:33.993Z,18.23
2017-07-14T05:37:33.387Z,18.26
2017-07-14T05:38:34.037Z,18.14
2017-07-14T05:39:34.061Z,18.12
2017-07-14T05:40:33.798Z,18.1
2017-07-14T05:41:34.128Z,18.25
2017-07-14T05:42:34.140Z,18.33
2017-07-14T05:43:34.172Z,18.29
2017-07-14T05:44:48.787Z,18.37
2017-07-14T05:45:34.229Z,18.42
2017-07-14T05:46:34.235Z,18.44
2017-07-14T05:47:33.952Z,18.44
2017-07-14T05:48:33.965Z,18.5
2017-07-14T05:49:33.991Z,18.44
2017-07-14T05:50:34.339Z,18.55
2017-07-14T05:51:34.369Z,18.7
2017-07-14T05:52:34.395Z,18.78
2017-07-14T05:53:34.414Z,18.84
2017-07-14T05:54:34.122Z,19.06
2017-07-14T05:55:34.460Z,19.62
2017-07-14T05:56:34.496Z,20.06
2017-07-14T05:57:34.182Z,20.23
2017-07-14T05:58:34.231Z,20.32
2017-07-14T05:59:34.568Z,20.29
2017-07-14T06:00:49.176Z,20.08
2017-07-14T06:01:34.616Z,20.03
2017-07-14T06:02:34.638Z,20.08
2017-07-14T06:03:34.669Z,20.08
2017-07-14T06:04:34.684Z,20.02
2017-07-14T06:05:34.719Z,20.21
2017-07-14T06:06:34.731Z,20.16
2017-07-14T06:07:34.770Z,20.06
2017-07-14T06:08:34.779Z,20.13
2017-07-14T06:09:34.504Z,20.23
2017-07-14T06:10:34.841Z,20.24
2017-07-14T06:11:34.550Z,20.29
2017-07-14T06:12:34.882Z,20.39
2017-07-14T06:13:34.917Z,20.55
2017-07-14T06:14:34.939Z,20.59
2017-07-14T06:15:34.652Z,20.58
2017-07-14T06:16:49.591Z,20.89
2017-07-14T06:17:34.689Z,21.16
2017-07-14T06:18:49.652Z,21.61
2017-07-14T06:19:34.758Z,21.67
2017-07-14T06:20:34.784Z,21.53
2017-07-14T06:21:34.791Z,21.47
2017-07-14T06:22:35.349Z,21.5
2017-07-14T06:23:35.171Z,21.71
2017-07-14T06:24:35.202Z,21.91
2017-07-14T06:25:35.220Z,21.98
2017-07-14T06:26:35.258Z,21.8
2017-07-14T06:27:35.272Z,21.58
2017-07-14T06:28:35.315Z,21.65
2017-07-14T06:29:49.947Z,21.59
2017-07-14T06:30:35.353Z,21.52
2017-07-14T06:31:49.986Z,21.56
2017-07-14T06:32:35.098Z,21.64
2017-07-14T06:33:35.432Z,21.61
2017-07-14T06:34:35.459Z,21.59
2017-07-14T06:35:49.780Z,21.67
2017-07-14T06:36:35.517Z,21.75
2017-07-14T06:37:50.150Z,21.96
2017-07-14T06:38:34.938Z,21.86
2017-07-14T06:39:35.295Z,21.99
2017-07-14T06:40:35.621Z,22.03
2017-07-14T06:41:35.667Z,22.02
2017-07-14T06:42:35.680Z,21.94
2017-07-14T06:44:35.410Z,21.99
2017-07-14T06:45:35.765Z,22
2017-07-14T06:46:35.479Z,22.09
2017-07-14T06:47:35.802Z,22.24
2017-07-14T06:48:35.830Z,22.57
2017-07-14T06:49:35.857Z,22.65
2017-07-14T06:50:35.586Z,23.01
2017-07-14T06:51:35.923Z,23.79
2017-07-14T06:52:36.010Z,24.37
2017-07-14T06:53:35.974Z,24.8
2017-07-14T06:54:35.685Z,25.38
2017-07-14T06:56:36.046Z,24.69
2017-07-14T06:57:36.095Z,25.08
2017-07-14T06:58:35.800Z,24.91
2017-07-14T06:59:36.159Z,25.09
2017-07-14T07:00:36.172Z,24.85
2017-07-14T07:01:36.210Z,24.58
2017-07-14T07:02:35.595Z,24.93
2017-07-14T07:03:50.860Z,25.83
2017-07-14T07:04:36.281Z,26.58
2017-07-14T07:05:36.017Z,27.41
2017-07-14T07:06:36.356Z,27.69
2017-07-14T07:07:50.987Z,28.41
2017-07-14T07:08:36.126Z,28.64
2017-07-14T07:09:36.133Z,28.64
2017-07-14T07:10:36.478Z,29.24
2017-07-14T07:11:36.506Z,29.65
2017-07-14T07:12:36.523Z,30.23
2017-07-14T07:13:36.556Z,30.24
2017-07-14T07:14:36.284Z,30.55
2017-07-14T07:15:50.911Z,30.82
2017-07-14T07:16:36.346Z,30.34
2017-07-14T07:17:36.383Z,29.73
2017-07-14T07:18:36.712Z,29.94
2017-07-14T07:19:51.370Z,30.38
2017-07-14T07:20:36.476Z,30.49
2017-07-14T07:21:36.837Z,30.84
2017-07-14T07:22:36.227Z,31.21
2017-07-14T07:23:36.891Z,31.19
2017-07-14T07:24:36.642Z,30.91
2017-07-14T07:25:37.017Z,30.97
2017-07-14T07:26:36.690Z,31.61
2017-07-14T07:27:36.711Z,31.99
2017-07-14T07:28:37.075Z,32.13
2017-07-14T07:29:36.783Z,32.22
2017-07-14T07:30:36.818Z,32.57
2017-07-14T07:31:37.164Z,32.52
2017-07-14T07:32:36.883Z,32.37
2017-07-14T07:33:37.224Z,32.3
2017-07-14T07:35:51.910Z,33.61
2017-07-14T07:36:37.050Z,33.69
2017-07-14T07:37:37.068Z,33.49
2017-07-14T07:38:37.435Z,32.72
2017-07-14T07:39:37.449Z,32.08
2017-07-14T07:40:36.851Z,32.26
2017-07-14T07:42:37.251Z,31.85
2017-07-14T07:43:37.612Z,31.53
2017-07-14T07:44:37.639Z,31.93
2017-07-14T07:45:37.661Z,31.7
2017-07-14T07:46:37.062Z,31.56
2017-07-14T07:47:37.422Z,31.53
2017-07-14T07:48:37.792Z,31.57
2017-07-14T07:49:37.807Z,31.58
2017-07-14T07:50:37.853Z,30.26
2017-07-14T07:51:52.475Z,30.31
2017-07-14T07:52:37.916Z,30.45
2017-07-14T07:53:37.945Z,30.65
2017-07-14T07:54:37.665Z,31.14
2017-07-14T07:55:38.018Z,30.89
2017-07-14T07:57:37.763Z,31.34
2017-07-14T07:58:37.501Z,30.89
2017-07-14T07:59:52.449Z,30.75
2017-07-14T08:00:38.204Z,30.77
2017-07-14T08:01:38.247Z,30.77
2017-07-14T08:02:37.957Z,30.39
2017-07-14T08:03:38.296Z,30.77
2017-07-14T08:04:38.324Z,31.25
2017-07-14T08:06:53.004Z,32.28
2017-07-14T08:07:38.143Z,31.99
2017-07-14T08:08:38.162Z,32.29
2017-07-14T08:10:38.549Z,33.12
2017-07-14T08:11:38.589Z,32.87
2017-07-14T08:12:37.995Z,32.28
2017-07-14T08:13:38.337Z,31.78
2017-07-14T08:14:52.980Z,32.21
2017-07-14T08:15:38.092Z,32.14
2017-07-14T08:16:38.139Z,31.75
2017-07-14T08:18:38.510Z,31.53
2017-07-14T08:20:38.900Z,30.92
2017-07-14T08:21:38.634Z,31.04
2017-07-14T08:22:38.978Z,31.2
2017-07-14T08:23:38.702Z,31.36
2017-07-14T08:24:38.732Z,31.28
2017-07-14T08:25:39.076Z,31.31
2017-07-14T08:26:39.122Z,31.09
2017-07-14T08:27:39.144Z,30.7
2017-07-14T08:28:38.550Z,30.88
2017-07-14T08:29:39.215Z,31.78
2017-07-14T08:30:38.954Z,31.91
2017-07-14T08:31:39.312Z,31.43
2017-07-14T08:32:39.016Z,30.46
2017-07-14T08:33:39.060Z,29.82
2017-07-14T08:34:39.077Z,29.02
2017-07-14T08:35:39.127Z,28.71
2017-07-14T08:36:39.463Z,28.66
2017-07-14T08:37:39.514Z,28.58
2017-07-14T08:38:54.129Z,27.88
2017-07-14T08:39:39.570Z,27.69
2017-07-14T08:40:39.598Z,27.41
2017-07-14T08:41:39.316Z,27.07
2017-07-14T08:42:54.283Z,26.77
2017-07-14T08:43:39.705Z,26.7
2017-07-14T08:44:39.428Z,26.47
2017-07-14T08:45:39.776Z,26.32
2017-07-14T08:46:54.408Z,26.06
2017-07-14T08:49:40.209Z,25.43
2017-07-14T08:50:39.937Z,25.45
2017-07-14T08:52:39.682Z,25.45
2017-07-14T08:53:39.700Z,24.95
2017-07-14T08:54:54.662Z,24.76
2017-07-14T08:55:40.088Z,24.77
2017-07-14T08:56:39.802Z,24.77
2017-07-14T08:57:40.208Z,24.77
2017-07-14T08:58:40.176Z,24.98
2017-07-14T09:00:40.233Z,25.21
2017-07-14T09:01:40.286Z,25.51
2017-07-14T09:02:39.979Z,25.21
2017-07-14T09:03:40.341Z,25.15
2017-07-14T09:04:40.044Z,25.21
2017-07-14T09:05:40.089Z,25.42
2017-07-14T09:06:40.426Z,26.05
2017-07-14T09:07:55.052Z,25.73
2017-07-14T09:08:40.483Z,25.55
2017-07-14T09:09:39.883Z,25.69
2017-07-14T09:10:54.826Z,25.9
2017-07-14T09:11:40.256Z,25.97
2017-07-14T09:12:40.615Z,25.79
2017-07-14T09:13:40.008Z,25.51
2017-07-14T09:14:40.664Z,25.43
2017-07-14T09:15:40.694Z,25.28
2017-07-14T09:16:55.010Z,25.23
2017-07-14T09:17:40.748Z,24.64
2017-07-14T09:19:40.495Z,24.24
2017-07-14T09:20:40.848Z,24.43
2017-07-14T09:21:40.550Z,24.46
2017-07-14T09:22:40.268Z,24.12
2017-07-14T09:23:40.300Z,24.1
2017-07-14T09:24:40.961Z,24.27
2017-07-14T09:25:40.976Z,24.35
2017-07-14T09:26:55.622Z,24.28
2017-07-14T09:27:41.055Z,24.1
2017-07-14T09:28:41.069Z,24.4
2017-07-14T09:29:41.136Z,24.31
2017-07-14T09:30:40.807Z,24.45
2017-07-14T09:31:41.174Z,24.6
2017-07-14T09:32:40.870Z,24.68
2017-07-14T09:33:41.225Z,24.84
2017-07-14T09:34:41.243Z,24.6
2017-07-14T09:35:55.884Z,24.78
2017-07-14T09:36:41.306Z,25.05
2017-07-14T09:38:41.372Z,25.25
2017-07-14T09:39:41.078Z,25.09
2017-07-14T09:41:55.739Z,25.32
2017-07-14T09:43:41.522Z,25.14
2017-07-14T09:44:41.219Z,24.61
2017-07-14T09:45:41.586Z,24.55
2017-07-14T09:46:41.281Z,24.61
2017-07-14T09:47:41.643Z,24.67
2017-07-14T09:48:41.650Z,24.6
2017-07-14T09:49:41.685Z,24.49
2017-07-14T09:50:41.388Z,24.61
2017-07-14T09:51:41.769Z,24.83
2017-07-14T09:52:41.766Z,25
2017-07-14T09:53:41.811Z,25.15
2017-07-14T09:54:41.510Z,25.61
2017-07-14T09:55:41.557Z,26.25
2017-07-14T09:56:41.568Z,26.35
2017-07-14T09:57:41.600Z,26.66
2017-07-14T09:58:41.946Z,26.7
2017-07-14T09:59:41.981Z,26.57
2017-07-14T10:03:42.082Z,25.51
2017-07-14T10:04:42.124Z,25.14
2017-07-14T10:05:42.148Z,24.76
2017-07-14T10:06:41.549Z,24.52
2017-07-14T10:07:41.630Z,24.4
2017-07-14T10:08:41.919Z,24.52
2017-07-14T10:10:41.647Z,24.6
2017-07-14T10:12:42.041Z,24.88
2017-07-14T10:14:42.433Z,24.68
2017-07-14T10:16:42.473Z,25.1
2017-07-14T10:17:42.497Z,24.93
2017-07-14T10:18:42.220Z,25
2017-07-14T10:19:42.546Z,24.61
2017-07-14T10:20:42.585Z,24.58
2017-07-14T10:21:42.282Z,24.45
2017-07-14T10:22:42.012Z,24.3
2017-07-14T10:23:42.339Z,24.27
2017-07-14T10:24:42.712Z,24.39
2017-07-14T10:25:42.725Z,24.43
2017-07-14T10:26:42.771Z,24.39
2017-07-14T10:27:42.775Z,24.05
2017-07-14T10:28:42.815Z,23.84
2017-07-14T10:29:57.442Z,23.6
2017-07-14T10:30:42.238Z,23.53
2017-07-14T10:31:42.594Z,23.5
2017-07-14T10:32:42.287Z,23.72
2017-07-14T10:33:57.242Z,23.55
2017-07-14T10:34:42.972Z,23.57
2017-07-14T10:35:42.702Z,23.76
2017-07-14T10:36:42.727Z,23.85
2017-07-14T10:37:57.354Z,23.57
2017-07-14T10:38:42.784Z,23.57
2017-07-14T10:39:42.810Z,23.58
2017-07-14T10:40:42.832Z,23.65
2017-07-14T10:41:42.865Z,23.73
2017-07-14T10:42:43.197Z,23.73
2017-07-14T10:43:42.928Z,23.76
2017-07-14T10:44:42.634Z,23.63
2017-07-14T10:45:57.883Z,23.35
2017-07-14T10:46:43.008Z,23.2
2017-07-14T10:47:43.346Z,22.98
2017-07-14T10:48:57.985Z,22.68
2017-07-14T10:49:43.085Z,22.55
2017-07-14T10:50:43.434Z,22.72
2017-07-14T10:52:43.486Z,22.79
2017-07-14T10:53:43.205Z,22.72
2017-07-14T10:54:42.915Z,22.86
2017-07-14T10:55:43.582Z,22.94
2017-07-14T10:56:43.587Z,22.92
2017-07-14T10:57:43.632Z,23.02
2017-07-14T10:58:43.648Z,22.97
2017-07-14T10:59:43.367Z,23.02
2017-07-14T11:00:43.385Z,23.1
2017-07-14T11:01:58.340Z,22.95
2017-07-14T11:02:43.768Z,22.98
2017-07-14T11:03:43.477Z,23.02
2017-07-14T11:05:43.889Z,23.28
2017-07-14T11:06:43.877Z,23.33
2017-07-14T11:07:43.586Z,23.47
2017-07-14T11:09:43.942Z,23.51
2017-07-14T11:10:44.007Z,23.55
2017-07-14T11:12:43.410Z,23.91
2017-07-14T11:13:44.066Z,24.05
2017-07-14T11:14:43.786Z,24.25
2017-07-14T11:15:58.718Z,24.1
2017-07-14T11:16:58.753Z,24.24
2017-07-14T11:17:43.879Z,24.39
2017-07-14T11:18:43.884Z,24.6
2017-07-14T11:19:44.240Z,24.83
2017-07-14T11:20:43.999Z,25.06
2017-07-14T11:21:43.982Z,25.15
2017-07-14T11:22:58.603Z,24.78
2017-07-14T11:23:44.012Z,24.39
2017-07-14T11:24:44.061Z,24.16
2017-07-14T11:25:59.011Z,24.13
2017-07-14T11:26:44.432Z,24.28
2017-07-14T11:27:44.142Z,24.52
2017-07-14T11:28:44.501Z,24.37
2017-07-14T11:29:44.506Z,24.39
2017-07-14T11:30:44.540Z,24.21
2017-07-14T11:31:44.566Z,23.9
2017-07-14T11:33:44.007Z,23.79
2017-07-14T11:35:44.690Z,24.16
2017-07-14T11:36:44.706Z,24.12
2017-07-14T11:37:44.744Z,24.42
2017-07-14T11:38:44.776Z,24.71
2017-07-14T11:39:44.797Z,24.99
2017-07-14T11:40:44.515Z,25.14
2017-07-14T11:41:44.857Z,24.91
2017-07-14T11:42:59.478Z,24.85
2017-07-14T11:44:44.951Z,24.18
2017-07-14T11:45:44.957Z,24.24
2017-07-14T11:46:44.983Z,24.31
2017-07-14T11:47:45.021Z,24.42
2017-07-14T11:48:59.650Z,24.4
2017-07-14T11:49:44.748Z,24.68
2017-07-14T11:51:45.148Z,25.27
2017-07-14T11:52:45.168Z,25.57
2017-07-14T11:53:45.195Z,25.73
2017-07-14T11:54:45.223Z,25.58
2017-07-14T11:55:45.264Z,25.25
2017-07-14T11:56:44.963Z,25.62
2017-07-14T11:58:59.935Z,26.15
2017-07-14T11:59:44.728Z,26.3
2017-07-14T12:00:44.755Z,26.32
2017-07-14T12:01:45.091Z,26.2
2017-07-14T12:02:45.143Z,26.06
2017-07-14T12:05:00.107Z,25.75
2017-07-14T12:05:45.210Z,25.7
2017-07-14T12:07:45.277Z,25.69
2017-07-14T12:08:45.620Z,25.5
2017-07-14T12:09:45.325Z,25.61
2017-07-14T12:10:45.358Z,25.73
2017-07-14T12:11:45.374Z,25.85
2017-07-14T12:12:45.734Z,25.92
2017-07-14T12:13:45.430Z,26.15
2017-07-14T12:14:45.485Z,26.07
2017-07-14T12:15:45.513Z,25.94
2017-07-14T12:17:00.447Z,25.75
2017-07-14T12:17:45.549Z,25.6
2017-07-14T12:18:45.580Z,25.27
2017-07-14T12:19:45.667Z,25.39
2017-07-14T12:21:00.552Z,25.72
2017-07-14T12:21:45.677Z,25.87
2017-07-14T12:23:00.306Z,25.76
2017-07-14T12:23:45.404Z,25.79
2017-07-14T12:24:46.076Z,25.8
2017-07-14T12:25:45.781Z,26.06
2017-07-14T12:27:00.739Z,25.95
2017-07-14T12:27:45.843Z,25.62
2017-07-14T12:29:46.226Z,25.24
2017-07-14T12:30:46.249Z,25.02
2017-07-14T12:31:46.262Z,25.03
2017-07-14T12:33:00.906Z,25.02
2017-07-14T12:33:46.361Z,25.09
2017-07-14T12:34:46.368Z,25.06
2017-07-14T12:35:46.435Z,24.93
2017-07-14T12:37:00.701Z,24.69
2017-07-14T12:37:46.442Z,24.57
2017-07-14T12:38:46.477Z,24.45
2017-07-14T12:39:46.193Z,24.12
2017-07-14T12:40:46.511Z,23.91
2017-07-14T12:41:46.565Z,24
2017-07-14T12:42:46.265Z,24.1
2017-07-14T12:43:46.647Z,24.05
2017-07-14T12:44:46.633Z,24.12
2017-07-14T12:45:46.683Z,24.27
2017-07-14T12:46:46.700Z,24.37
2017-07-14T12:47:46.408Z,24.55
2017-07-14T12:48:46.765Z,25.02
2017-07-14T12:49:46.781Z,25.4
2017-07-14T12:50:46.864Z,25.7
2017-07-14T12:52:01.437Z,26.01
2017-07-14T12:52:46.861Z,26.12
2017-07-14T12:53:46.587Z,26.07
2017-07-14T12:55:46.963Z,26.65
2017-07-14T12:56:46.677Z,26.91
2017-07-14T12:57:47.015Z,26.66
2017-07-14T12:58:47.044Z,26.52
2017-07-14T12:59:46.758Z,26.57
2017-07-14T13:00:47.153Z,26.57
2017-07-14T13:01:47.120Z,26.39
2017-07-14T13:02:47.151Z,26.39
2017-07-14T13:03:47.195Z,26.55
2017-07-14T13:05:46.932Z,26.85
2017-07-14T13:06:47.254Z,26.82
2017-07-14T13:07:47.311Z,26.85
2017-07-14T13:08:46.682Z,26.77
2017-07-14T13:09:46.716Z,26.7
2017-07-14T13:11:47.421Z,26.85
2017-07-14T13:12:47.507Z,26.55
2017-07-14T13:13:47.468Z,26.57
2017-07-14T13:14:47.504Z,26.43
2017-07-14T13:15:47.205Z,26.54
2017-07-14T13:16:47.248Z,26.57
2017-07-14T13:17:47.265Z,26.58
2017-07-14T13:18:47.306Z,26.8
2017-07-14T13:19:47.657Z,26.84
2017-07-14T13:20:47.666Z,26.67
2017-07-14T13:21:47.376Z,26.44
2017-07-14T13:22:47.093Z,26.43
2017-07-14T13:24:02.039Z,26.43
2017-07-14T13:25:47.823Z,26.52
2017-07-14T13:26:47.832Z,26.72
2017-07-14T13:27:47.874Z,26.62
2017-07-14T13:28:47.916Z,26.43
2017-07-14T13:29:47.933Z,26.39
2017-07-14T13:30:47.630Z,26.15
2017-07-14T13:31:47.987Z,26.2
2017-07-14T13:32:48.013Z,26.1
2017-07-14T13:33:48.051Z,25.99
2017-07-14T13:34:48.079Z,25.91
2017-07-14T13:35:47.792Z,25.82
2017-07-14T13:36:48.125Z,25.95
2017-07-14T13:37:48.162Z,25.9
2017-07-14T13:38:48.178Z,25.69
2017-07-14T13:40:02.497Z,25.73
2017-07-14T13:40:48.248Z,25.77
2017-07-14T13:41:47.954Z,25.6
2017-07-14T13:42:48.312Z,25.45
2017-07-14T13:43:48.017Z,25.39
2017-07-14T13:45:02.967Z,25.52
2017-07-14T13:46:48.088Z,25.38
2017-07-14T13:47:48.443Z,25.45